sensor_id;sensor_type;location;lat;lon;timestamp;temperature;humidity
24164;DHT22;12319;49.204;8.116;2023-04-03T00:02:08;6.10;81.60
24164;DHT22;12319;49.204;8.116;2023-04-03T00:04:33;6.00;81.60
24164;DHT22;12319;49.204;8.116;2023-04-03T00:07:00;5.90;81.60
24164;DHT22;12319;49.204;8.116;2023-04-03T00:09:25;5.90;82.40
24164;DHT22;12319;49.204;8.116;2023-04-03T00:11:51;5.80;82.40
24164;DHT22;12319;49.204;8.116;2023-04-03T00:14:17;5.70;82.80
24164;DHT22;12319;49.204;8.116;2023-04-03T00:16:42;5.70;82.80
24164;DHT22;12319;49.204;8.116;2023-04-03T00:19:08;5.60;82.70
24164;DHT22;12319;49.204;8.116;2023-04-03T00:21:33;5.60;82.90
24164;DHT22;12319;49.204;8.116;2023-04-03T00:23:59;5.50;83.10
24164;DHT22;12319;49.204;8.116;2023-04-03T00:26:25;5.50;83.30
24164;DHT22;12319;49.204;8.116;2023-04-03T00:28:50;5.40;83.40
24164;DHT22;12319;49.204;8.116;2023-04-03T00:31:16;5.30;83.50
24164;DHT22;12319;49.204;8.116;2023-04-03T00:33:42;5.30;83.40
24164;DHT22;12319;49.204;8.116;2023-04-03T00:36:09;5.20;83.50
24164;DHT22;12319;49.204;8.116;2023-04-03T00:38:36;5.10;83.70
24164;DHT22;12319;49.204;8.116;2023-04-03T00:41:02;5.10;83.70
24164;DHT22;12319;49.204;8.116;2023-04-03T00:43:27;5.00;83.60
24164;DHT22;12319;49.204;8.116;2023-04-03T00:45:57;5.00;83.90
24164;DHT22;12319;49.204;8.116;2023-04-03T00:48:30;4.90;84.10
24164;DHT22;12319;49.204;8.116;2023-04-03T00:50:57;4.80;84.20
24164;DHT22;12319;49.204;8.116;2023-04-03T00:53:35;4.80;84.10
24164;DHT22;12319;49.204;8.116;2023-04-03T00:56:05;4.60;84.20
24164;DHT22;12319;49.204;8.116;2023-04-03T00:59:19;4.70;84.40
24164;DHT22;12319;49.204;8.116;2023-04-03T01:01:27;4.60;84.50
24164;DHT22;12319;49.204;8.116;2023-04-03T01:03:52;4.60;84.70
24164;DHT22;12319;49.204;8.116;2023-04-03T01:06:21;4.50;84.90
24164;DHT22;12319;49.204;8.116;2023-04-03T01:08:50;4.50;85.00
24164;DHT22;12319;49.204;8.116;2023-04-03T01:11:16;4.40;84.90
24164;DHT22;12319;49.204;8.116;2023-04-03T01:13:42;4.40;85.00
24164;DHT22;12319;49.204;8.116;2023-04-03T01:16:08;4.40;85.10
24164;DHT22;12319;49.204;8.116;2023-04-03T01:18:36;4.40;85.10
24164;DHT22;12319;49.204;8.116;2023-04-03T01:24:22;4.30;85.40
24164;DHT22;12319;49.204;8.116;2023-04-03T01:26:50;4.30;85.30
24164;DHT22;12319;49.204;8.116;2023-04-03T01:29:15;4.20;85.30
24164;DHT22;12319;49.204;8.116;2023-04-03T01:31:54;4.20;85.40
24164;DHT22;12319;49.204;8.116;2023-04-03T01:34:20;4.20;85.40
24164;DHT22;12319;49.204;8.116;2023-04-03T01:36:46;4.20;85.60
24164;DHT22;12319;49.204;8.116;2023-04-03T01:39:12;4.10;85.40
24164;DHT22;12319;49.204;8.116;2023-04-03T01:41:37;4.10;85.50
24164;DHT22;12319;49.204;8.116;2023-04-03T01:44:03;4.10;85.60
24164;DHT22;12319;49.204;8.116;2023-04-03T01:46:29;4.10;85.60
24164;DHT22;12319;49.204;8.116;2023-04-03T01:48:55;4.10;85.60
24164;DHT22;12319;49.204;8.116;2023-04-03T01:51:20;4.10;85.60
24164;DHT22;12319;49.204;8.116;2023-04-03T01:53:46;4.10;85.60
24164;DHT22;12319;49.204;8.116;2023-04-03T01:56:11;4.10;85.60
24164;DHT22;12319;49.204;8.116;2023-04-03T01:58:37;4.10;85.60
24164;DHT22;12319;49.204;8.116;2023-04-03T02:01:03;4.10;85.60
24164;DHT22;12319;49.204;8.116;2023-04-03T02:03:29;4.10;85.60
24164;DHT22;12319;49.204;8.116;2023-04-03T02:05:55;4.10;85.60
24164;DHT22;12319;49.204;8.116;2023-04-03T02:08:20;4.00;85.50
24164;DHT22;12319;49.204;8.116;2023-04-03T02:10:49;4.10;85.60
24164;DHT22;12319;49.204;8.116;2023-04-03T02:13:16;4.10;85.60
24164;DHT22;12319;49.204;8.116;2023-04-03T02:15:41;4.00;85.40
24164;DHT22;12319;49.204;8.116;2023-04-03T02:18:07;4.00;85.40
24164;DHT22;12319;49.204;8.116;2023-04-03T02:20:33;4.00;85.50
24164;DHT22;12319;49.204;8.116;2023-04-03T02:22:59;4.00;85.50
24164;DHT22;12319;49.204;8.116;2023-04-03T02:25:25;4.10;85.60
24164;DHT22;12319;49.204;8.116;2023-04-03T02:27:51;4.00;85.50
24164;DHT22;12319;49.204;8.116;2023-04-03T02:30:17;4.00;85.50
24164;DHT22;12319;49.204;8.116;2023-04-03T02:32:43;4.00;85.50
24164;DHT22;12319;49.204;8.116;2023-04-03T02:35:09;4.00;85.70
24164;DHT22;12319;49.204;8.116;2023-04-03T02:37:35;4.10;85.80
24164;DHT22;12319;49.204;8.116;2023-04-03T02:40:01;4.00;85.90
24164;DHT22;12319;49.204;8.116;2023-04-03T02:42:27;4.00;85.90
24164;DHT22;12319;49.204;8.116;2023-04-03T02:44:52;4.00;85.90
24164;DHT22;12319;49.204;8.116;2023-04-03T02:47:18;4.00;86.00
24164;DHT22;12319;49.204;8.116;2023-04-03T02:49:43;4.00;86.30
24164;DHT22;12319;49.204;8.116;2023-04-03T02:52:10;4.00;86.40
24164;DHT22;12319;49.204;8.116;2023-04-03T02:54:35;4.00;86.60
24164;DHT22;12319;49.204;8.116;2023-04-03T02:57:01;4.00;86.70
24164;DHT22;12319;49.204;8.116;2023-04-03T02:59:27;4.00;86.70
24164;DHT22;12319;49.204;8.116;2023-04-03T03:01:52;4.00;86.90
24164;DHT22;12319;49.204;8.116;2023-04-03T03:04:18;4.00;87.00
24164;DHT22;12319;49.204;8.116;2023-04-03T03:06:44;4.00;87.00
24164;DHT22;12319;49.204;8.116;2023-04-03T03:09:09;4.00;87.10
24164;DHT22;12319;49.204;8.116;2023-04-03T03:11:35;4.00;87.20
24164;DHT22;12319;49.204;8.116;2023-04-03T03:14:01;4.00;87.20
24164;DHT22;12319;49.204;8.116;2023-04-03T03:16:26;4.00;87.60
24164;DHT22;12319;49.204;8.116;2023-04-03T03:18:52;3.90;87.50
24164;DHT22;12319;49.204;8.116;2023-04-03T03:21:17;3.90;87.60
24164;DHT22;12319;49.204;8.116;2023-04-03T03:23:43;4.00;87.80
24164;DHT22;12319;49.204;8.116;2023-04-03T03:26:10;4.00;87.80
24164;DHT22;12319;49.204;8.116;2023-04-03T03:28:36;4.00;88.00
24164;DHT22;12319;49.204;8.116;2023-04-03T03:31:03;4.00;88.00
24164;DHT22;12319;49.204;8.116;2023-04-03T03:33:29;4.00;88.00
24164;DHT22;12319;49.204;8.116;2023-04-03T03:35:55;4.00;88.20
24164;DHT22;12319;49.204;8.116;2023-04-03T03:38:21;4.10;88.10
24164;DHT22;12319;49.204;8.116;2023-04-03T03:40:47;4.10;88.10
24164;DHT22;12319;49.204;8.116;2023-04-03T03:43:14;4.10;88.20
24164;DHT22;12319;49.204;8.116;2023-04-03T03:45:39;4.10;88.20
24164;DHT22;12319;49.204;8.116;2023-04-03T03:48:05;4.10;88.30
24164;DHT22;12319;49.204;8.116;2023-04-03T03:50:31;4.10;88.50
24164;DHT22;12319;49.204;8.116;2023-04-03T03:52:56;4.10;88.60
24164;DHT22;12319;49.204;8.116;2023-04-03T03:55:22;4.10;89.30
24164;DHT22;12319;49.204;8.116;2023-04-03T03:57:47;4.10;88.60
24164;DHT22;12319;49.204;8.116;2023-04-03T04:00:14;4.20;88.60
24164;DHT22;12319;49.204;8.116;2023-04-03T04:02:40;4.20;88.60
24164;DHT22;12319;49.204;8.116;2023-04-03T04:05:06;4.20;88.50
24164;DHT22;12319;49.204;8.116;2023-04-03T04:07:32;4.20;88.40
24164;DHT22;12319;49.204;8.116;2023-04-03T04:09:57;4.20;88.60
24164;DHT22;12319;49.204;8.116;2023-04-03T04:12:23;4.20;88.80
24164;DHT22;12319;49.204;8.116;2023-04-03T04:14:48;4.20;88.80
24164;DHT22;12319;49.204;8.116;2023-04-03T04:17:14;4.30;88.90
24164;DHT22;12319;49.204;8.116;2023-04-03T04:19:40;4.30;88.80
24164;DHT22;12319;49.204;8.116;2023-04-03T04:22:06;4.30;88.80
24164;DHT22;12319;49.204;8.116;2023-04-03T04:24:32;4.30;88.60
24164;DHT22;12319;49.204;8.116;2023-04-03T04:26:57;4.30;88.60
24164;DHT22;12319;49.204;8.116;2023-04-03T04:29:23;4.30;88.70
24164;DHT22;12319;49.204;8.116;2023-04-03T04:31:48;4.30;88.50
24164;DHT22;12319;49.204;8.116;2023-04-03T04:34:14;4.20;88.40
24164;DHT22;12319;49.204;8.116;2023-04-03T04:36:40;4.20;88.30
24164;DHT22;12319;49.204;8.116;2023-04-03T04:39:06;4.10;88.30
24164;DHT22;12319;49.204;8.116;2023-04-03T04:41:31;4.10;88.30
24164;DHT22;12319;49.204;8.116;2023-04-03T04:43:57;4.00;88.40
24164;DHT22;12319;49.204;8.116;2023-04-03T04:46:22;3.90;88.30
24164;DHT22;12319;49.204;8.116;2023-04-03T04:48:48;3.80;88.40
24164;DHT22;12319;49.204;8.116;2023-04-03T04:51:15;3.70;88.60
24164;DHT22;12319;49.204;8.116;2023-04-03T04:53:41;3.70;88.70
24164;DHT22;12319;49.204;8.116;2023-04-03T04:56:07;3.60;88.80
24164;DHT22;12319;49.204;8.116;2023-04-03T04:58:33;3.60;88.70
24164;DHT22;12319;49.204;8.116;2023-04-03T05:01:04;3.50;88.70
24164;DHT22;12319;49.204;8.116;2023-04-03T05:03:31;3.50;88.80
24164;DHT22;12319;49.204;8.116;2023-04-03T05:05:57;3.50;88.70
24164;DHT22;12319;49.204;8.116;2023-04-03T05:08:22;3.40;88.80
24164;DHT22;12319;49.204;8.116;2023-04-03T05:10:48;3.40;88.90
24164;DHT22;12319;49.204;8.116;2023-04-03T05:13:13;3.40;89.00
24164;DHT22;12319;49.204;8.116;2023-04-03T05:15:39;3.40;89.10
24164;DHT22;12319;49.204;8.116;2023-04-03T05:18:05;3.40;89.10
24164;DHT22;12319;49.204;8.116;2023-04-03T05:20:32;3.30;89.10
24164;DHT22;12319;49.204;8.116;2023-04-03T05:22:57;3.30;89.10
24164;DHT22;12319;49.204;8.116;2023-04-03T05:25:23;3.30;89.10
24164;DHT22;12319;49.204;8.116;2023-04-03T05:27:49;3.30;89.10
24164;DHT22;12319;49.204;8.116;2023-04-03T05:30:15;3.30;89.20
24164;DHT22;12319;49.204;8.116;2023-04-03T05:32:41;3.30;89.20
24164;DHT22;12319;49.204;8.116;2023-04-03T05:35:08;3.30;89.20
24164;DHT22;12319;49.204;8.116;2023-04-03T05:37:34;3.40;89.30
24164;DHT22;12319;49.204;8.116;2023-04-03T05:40:00;3.40;89.30
24164;DHT22;12319;49.204;8.116;2023-04-03T05:42:26;3.40;89.20
24164;DHT22;12319;49.204;8.116;2023-04-03T05:44:51;3.40;89.20
24164;DHT22;12319;49.204;8.116;2023-04-03T05:47:18;3.40;89.20
24164;DHT22;12319;49.204;8.116;2023-04-03T05:49:44;3.40;89.30
24164;DHT22;12319;49.204;8.116;2023-04-03T05:52:44;3.50;89.40
24164;DHT22;12319;49.204;8.116;2023-04-03T05:55:10;3.60;89.50
24164;DHT22;12319;49.204;8.116;2023-04-03T05:57:36;3.70;89.40
24164;DHT22;12319;49.204;8.116;2023-04-03T06:00:04;3.80;89.50
24164;DHT22;12319;49.204;8.116;2023-04-03T06:02:31;3.90;89.30
24164;DHT22;12319;49.204;8.116;2023-04-03T06:04:57;4.00;89.40
24164;DHT22;12319;49.204;8.116;2023-04-03T06:07:24;4.10;89.40
24164;DHT22;12319;49.204;8.116;2023-04-03T06:09:54;4.20;89.20
24164;DHT22;12319;49.204;8.116;2023-04-03T06:12:21;4.40;89.30
24164;DHT22;12319;49.204;8.116;2023-04-03T06:14:47;4.50;89.40
24164;DHT22;12319;49.204;8.116;2023-04-03T06:17:14;4.70;89.00
24164;DHT22;12319;49.204;8.116;2023-04-03T06:19:40;4.90;88.40
24164;DHT22;12319;49.204;8.116;2023-04-03T06:22:06;5.00;88.20
24164;DHT22;12319;49.204;8.116;2023-04-03T06:24:32;5.00;88.00
24164;DHT22;12319;49.204;8.116;2023-04-03T06:26:58;5.00;88.50
24164;DHT22;12319;49.204;8.116;2023-04-03T06:29:24;5.10;88.60
24164;DHT22;12319;49.204;8.116;2023-04-03T06:31:50;5.20;88.30
24164;DHT22;12319;49.204;8.116;2023-04-03T06:34:16;5.30;88.20
24164;DHT22;12319;49.204;8.116;2023-04-03T06:36:44;5.50;88.00
24164;DHT22;12319;49.204;8.116;2023-04-03T06:39:15;5.70;87.80
24164;DHT22;12319;49.204;8.116;2023-04-03T06:41:42;5.90;87.50
24164;DHT22;12319;49.204;8.116;2023-04-03T06:44:07;6.20;86.80
24164;DHT22;12319;49.204;8.116;2023-04-03T06:46:37;6.40;87.00
24164;DHT22;12319;49.204;8.116;2023-04-03T06:49:03;6.60;85.70
24164;DHT22;12319;49.204;8.116;2023-04-03T06:51:29;6.80;85.80
24164;DHT22;12319;49.204;8.116;2023-04-03T06:53:57;7.10;85.70
24164;DHT22;12319;49.204;8.116;2023-04-03T06:56:23;7.30;85.60
24164;DHT22;12319;49.204;8.116;2023-04-03T06:58:49;7.90;84.80
24164;DHT22;12319;49.204;8.116;2023-04-03T07:01:17;7.70;84.50
24164;DHT22;12319;49.204;8.116;2023-04-03T07:03:44;7.90;84.30
24164;DHT22;12319;49.204;8.116;2023-04-03T07:06:12;8.30;84.00
24164;DHT22;12319;49.204;8.116;2023-04-03T07:08:38;8.50;83.10
24164;DHT22;12319;49.204;8.116;2023-04-03T07:11:05;8.60;82.50
24164;DHT22;12319;49.204;8.116;2023-04-03T07:13:30;9.00;82.90
24164;DHT22;12319;49.204;8.116;2023-04-03T07:15:56;10.40;84.10
24164;DHT22;12319;49.204;8.116;2023-04-03T07:18:23;12.90;84.70
24164;DHT22;12319;49.204;8.116;2023-04-03T07:20:48;15.10;80.60
24164;DHT22;12319;49.204;8.116;2023-04-03T07:23:14;17.30;71.40
24164;DHT22;12319;49.204;8.116;2023-04-03T07:25:47;19.10;70.90
24164;DHT22;12319;49.204;8.116;2023-04-03T07:28:14;20.60;64.10
24164;DHT22;12319;49.204;8.116;2023-04-03T07:31:01;21.90;64.80
24164;DHT22;12319;49.204;8.116;2023-04-03T07:33:27;23.20;59.70
24164;DHT22;12319;49.204;8.116;2023-04-03T07:35:53;24.30;59.10
24164;DHT22;12319;49.204;8.116;2023-04-03T07:38:19;25.10;57.10
24164;DHT22;12319;49.204;8.116;2023-04-03T07:40:49;25.60;55.90
24164;DHT22;12319;49.204;8.116;2023-04-03T07:43:17;26.20;51.40
24164;DHT22;12319;49.204;8.116;2023-04-03T07:45:44;26.50;51.40
24164;DHT22;12319;49.204;8.116;2023-04-03T07:48:10;26.90;50.30
24164;DHT22;12319;49.204;8.116;2023-04-03T07:50:36;27.30;47.70
24164;DHT22;12319;49.204;8.116;2023-04-03T07:53:02;27.70;49.40
24164;DHT22;12319;49.204;8.116;2023-04-03T07:55:28;28.00;43.00
24164;DHT22;12319;49.204;8.116;2023-04-03T07:57:54;28.00;47.10
24164;DHT22;12319;49.204;8.116;2023-04-03T08:00:19;28.20;48.40
24164;DHT22;12319;49.204;8.116;2023-04-03T08:02:45;28.40;45.20
24164;DHT22;12319;49.204;8.116;2023-04-03T08:05:16;28.60;42.70
24164;DHT22;12319;49.204;8.116;2023-04-03T08:07:42;28.50;41.70
24164;DHT22;12319;49.204;8.116;2023-04-03T08:10:08;27.30;40.50
24164;DHT22;12319;49.204;8.116;2023-04-03T08:12:34;25.80;41.50
24164;DHT22;12319;49.204;8.116;2023-04-03T08:15:00;24.50;40.30
24164;DHT22;12319;49.204;8.116;2023-04-03T08:17:26;23.50;42.10
24164;DHT22;12319;49.204;8.116;2023-04-03T08:19:52;23.30;41.00
24164;DHT22;12319;49.204;8.116;2023-04-03T08:22:17;23.80;41.90
24164;DHT22;12319;49.204;8.116;2023-04-03T08:24:43;24.60;43.30
24164;DHT22;12319;49.204;8.116;2023-04-03T08:27:08;24.90;42.70
24164;DHT22;12319;49.204;8.116;2023-04-03T08:29:34;25.00;42.50
24164;DHT22;12319;49.204;8.116;2023-04-03T08:32:00;25.70;39.80
24164;DHT22;12319;49.204;8.116;2023-04-03T08:34:25;26.30;44.60
24164;DHT22;12319;49.204;8.116;2023-04-03T08:36:51;26.80;40.10
24164;DHT22;12319;49.204;8.116;2023-04-03T08:39:16;27.10;38.70
24164;DHT22;12319;49.204;8.116;2023-04-03T08:41:43;27.50;38.50
24164;DHT22;12319;49.204;8.116;2023-04-03T08:49:39;28.30;38.00
24164;DHT22;12319;49.204;8.116;2023-04-03T08:52:15;28.00;33.60
24164;DHT22;12319;49.204;8.116;2023-04-03T08:55:00;28.10;33.50
24164;DHT22;12319;49.204;8.116;2023-04-03T08:57:39;28.30;32.40
24164;DHT22;12319;49.204;8.116;2023-04-03T09:00:17;28.30;34.90
24164;DHT22;12319;49.204;8.116;2023-04-03T09:02:49;28.20;33.90
24164;DHT22;12319;49.204;8.116;2023-04-03T09:05:47;28.10;34.00
24164;DHT22;12319;49.204;8.116;2023-04-03T09:11:16;25.00;30.40
24164;DHT22;12319;49.204;8.116;2023-04-03T09:17:00;21.50;30.70
24164;DHT22;12319;49.204;8.116;2023-04-03T09:25:08;18.30;35.40
24164;DHT22;12319;49.204;8.116;2023-04-03T09:27:35;17.60;35.60
24164;DHT22;12319;49.204;8.116;2023-04-03T09:30:01;16.90;35.20
24164;DHT22;12319;49.204;8.116;2023-04-03T09:32:33;16.40;36.40
24164;DHT22;12319;49.204;8.116;2023-04-03T09:35:03;15.90;36.90
24164;DHT22;12319;49.204;8.116;2023-04-03T09:37:39;15.60;37.40
24164;DHT22;12319;49.204;8.116;2023-04-03T09:40:12;15.10;37.30
24164;DHT22;12319;49.204;8.116;2023-04-03T09:42:56;14.90;38.30
24164;DHT22;12319;49.204;8.116;2023-04-03T09:45:33;14.60;38.40
24164;DHT22;12319;49.204;8.116;2023-04-03T09:48:16;14.30;39.10
24164;DHT22;12319;49.204;8.116;2023-04-03T09:50:58;14.00;39.60
24164;DHT22;12319;49.204;8.116;2023-04-03T09:56:02;13.60;39.50
24164;DHT22;12319;49.204;8.116;2023-04-03T09:58:31;13.40;39.90
24164;DHT22;12319;49.204;8.116;2023-04-03T10:01:00;13.30;40.40
24164;DHT22;12319;49.204;8.116;2023-04-03T10:03:34;13.30;39.90
24164;DHT22;12319;49.204;8.116;2023-04-03T10:06:04;13.20;40.80
24164;DHT22;12319;49.204;8.116;2023-04-03T10:09:02;13.20;40.60
24164;DHT22;12319;49.204;8.116;2023-04-03T10:11:29;13.00;40.80
24164;DHT22;12319;49.204;8.116;2023-04-03T10:14:00;12.90;41.40
24164;DHT22;12319;49.204;8.116;2023-04-03T10:16:36;12.80;41.40
24164;DHT22;12319;49.204;8.116;2023-04-03T10:22:03;12.50;41.50
24164;DHT22;12319;49.204;8.116;2023-04-03T10:25:03;12.40;42.10
24164;DHT22;12319;49.204;8.116;2023-04-03T10:44:04;12.40;42.70
24164;DHT22;12319;49.204;8.116;2023-04-03T10:46:47;12.40;42.70
24164;DHT22;12319;49.204;8.116;2023-04-03T10:49:39;12.50;42.90
24164;DHT22;12319;49.204;8.116;2023-04-03T10:52:19;12.50;42.10
24164;DHT22;12319;49.204;8.116;2023-04-03T10:57:33;12.40;42.60
24164;DHT22;12319;49.204;8.116;2023-04-03T11:00:07;12.20;42.90
24164;DHT22;12319;49.204;8.116;2023-04-03T11:02:49;12.10;42.50
24164;DHT22;12319;49.204;8.116;2023-04-03T11:05:28;12.00;42.10
24164;DHT22;12319;49.204;8.116;2023-04-03T11:07:57;11.90;42.60
24164;DHT22;12319;49.204;8.116;2023-04-03T11:10:45;11.80;42.90
24164;DHT22;12319;49.204;8.116;2023-04-03T11:13:17;11.90;43.10
24164;DHT22;12319;49.204;8.116;2023-04-03T11:15:44;11.80;42.80
24164;DHT22;12319;49.204;8.116;2023-04-03T11:18:22;11.70;43.30
24164;DHT22;12319;49.204;8.116;2023-04-03T11:21:12;11.60;43.00
24164;DHT22;12319;49.204;8.116;2023-04-03T11:23:40;11.50;43.50
24164;DHT22;12319;49.204;8.116;2023-04-03T11:26:13;11.60;43.90
24164;DHT22;12319;49.204;8.116;2023-04-03T11:28:40;11.70;44.10
24164;DHT22;12319;49.204;8.116;2023-04-03T11:31:20;11.80;44.00
24164;DHT22;12319;49.204;8.116;2023-04-03T11:34:13;11.90;44.10
24164;DHT22;12319;49.204;8.116;2023-04-03T11:36:54;12.00;44.00
24164;DHT22;12319;49.204;8.116;2023-04-03T11:39:31;11.90;43.00
24164;DHT22;12319;49.204;8.116;2023-04-03T11:42:24;11.80;43.60
24164;DHT22;12319;49.204;8.116;2023-04-03T11:53:37;11.80;43.80
24164;DHT22;12319;49.204;8.116;2023-04-03T12:01:52;11.80;44.00
24164;DHT22;12319;49.204;8.116;2023-04-03T12:04:21;11.80;43.90
24164;DHT22;12319;49.204;8.116;2023-04-03T12:11:50;11.70;43.40
24164;DHT22;12319;49.204;8.116;2023-04-03T12:14:16;11.70;43.70
24164;DHT22;12319;49.204;8.116;2023-04-03T12:16:47;11.70;44.00
24164;DHT22;12319;49.204;8.116;2023-04-03T12:19:34;11.70;43.70
24164;DHT22;12319;49.204;8.116;2023-04-03T12:24:34;11.60;44.00
24164;DHT22;12319;49.204;8.116;2023-04-03T12:37:35;11.80;43.40
24164;DHT22;12319;49.204;8.116;2023-04-03T12:42:56;11.80;43.00
24164;DHT22;12319;49.204;8.116;2023-04-03T12:45:25;11.80;42.90
24164;DHT22;12319;49.204;8.116;2023-04-03T12:47:54;11.80;43.00
24164;DHT22;12319;49.204;8.116;2023-04-03T12:50:24;11.80;43.50
24164;DHT22;12319;49.204;8.116;2023-04-03T12:53:10;12.00;43.20
24164;DHT22;12319;49.204;8.116;2023-04-03T12:55:36;12.20;43.10
24164;DHT22;12319;49.204;8.116;2023-04-03T12:58:22;12.20;42.80
24164;DHT22;12319;49.204;8.116;2023-04-03T13:01:12;12.20;43.00
24164;DHT22;12319;49.204;8.116;2023-04-03T13:03:41;12.20;43.30
24164;DHT22;12319;49.204;8.116;2023-04-03T13:06:21;12.10;43.00
24164;DHT22;12319;49.204;8.116;2023-04-03T13:08:52;12.20;42.80
24164;DHT22;12319;49.204;8.116;2023-04-03T13:11:20;12.20;43.10
24164;DHT22;12319;49.204;8.116;2023-04-03T13:14:00;12.00;42.90
24164;DHT22;12319;49.204;8.116;2023-04-03T13:16:27;12.00;42.40
24164;DHT22;12319;49.204;8.116;2023-04-03T13:18:54;12.00;42.60
24164;DHT22;12319;49.204;8.116;2023-04-03T13:21:26;11.90;43.00
24164;DHT22;12319;49.204;8.116;2023-04-03T13:23:56;11.80;42.90
24164;DHT22;12319;49.204;8.116;2023-04-03T13:26:24;11.70;43.00
24164;DHT22;12319;49.204;8.116;2023-04-03T13:28:52;11.70;44.80
24164;DHT22;12319;49.204;8.116;2023-04-03T13:31:26;11.90;44.30
24164;DHT22;12319;49.204;8.116;2023-04-03T13:34:07;12.20;43.50
24164;DHT22;12319;49.204;8.116;2023-04-03T13:41:48;12.70;43.50
24164;DHT22;12319;49.204;8.116;2023-04-03T13:44:29;12.50;42.40
24164;DHT22;12319;49.204;8.116;2023-04-03T13:47:17;12.40;42.50
24164;DHT22;12319;49.204;8.116;2023-04-03T13:49:44;12.20;43.10
24164;DHT22;12319;49.204;8.116;2023-04-03T13:55:03;12.00;43.00
24164;DHT22;12319;49.204;8.116;2023-04-03T13:57:36;11.80;42.50
24164;DHT22;12319;49.204;8.116;2023-04-03T14:05:44;11.70;41.80
24164;DHT22;12319;49.204;8.116;2023-04-03T14:08:10;11.70;42.40
24164;DHT22;12319;49.204;8.116;2023-04-03T14:10:37;12.00;41.80
24164;DHT22;12319;49.204;8.116;2023-04-03T14:13:02;12.20;42.30
24164;DHT22;12319;49.204;8.116;2023-04-03T14:15:30;12.20;41.80
24164;DHT22;12319;49.204;8.116;2023-04-03T14:17:56;12.10;40.50
24164;DHT22;12319;49.204;8.116;2023-04-03T14:20:25;11.90;40.60
24164;DHT22;12319;49.204;8.116;2023-04-03T14:22:53;11.80;40.90
24164;DHT22;12319;49.204;8.116;2023-04-03T14:25:20;11.80;41.10
24164;DHT22;12319;49.204;8.116;2023-04-03T14:27:48;11.80;41.50
24164;DHT22;12319;49.204;8.116;2023-04-03T14:30:33;11.90;40.20
24164;DHT22;12319;49.204;8.116;2023-04-03T14:32:59;11.90;40.70
24164;DHT22;12319;49.204;8.116;2023-04-03T14:35:25;11.70;40.30
24164;DHT22;12319;49.204;8.116;2023-04-03T14:37:52;11.70;41.30
24164;DHT22;12319;49.204;8.116;2023-04-03T14:40:21;11.60;40.80
24164;DHT22;12319;49.204;8.116;2023-04-03T14:42:47;11.60;41.50
24164;DHT22;12319;49.204;8.116;2023-04-03T14:45:15;11.50;42.10
24164;DHT22;12319;49.204;8.116;2023-04-03T14:47:46;11.50;42.30
24164;DHT22;12319;49.204;8.116;2023-04-03T14:50:22;11.40;41.80
24164;DHT22;12319;49.204;8.116;2023-04-03T14:52:49;11.40;41.30
24164;DHT22;12319;49.204;8.116;2023-04-03T14:55:18;11.40;41.50
24164;DHT22;12319;49.204;8.116;2023-04-03T14:57:45;11.30;42.30
24164;DHT22;12319;49.204;8.116;2023-04-03T15:00:19;11.20;42.20
24164;DHT22;12319;49.204;8.116;2023-04-03T15:02:45;11.20;41.60
24164;DHT22;12319;49.204;8.116;2023-04-03T15:05:11;11.30;42.30
24164;DHT22;12319;49.204;8.116;2023-04-03T15:07:42;11.30;42.90
24164;DHT22;12319;49.204;8.116;2023-04-03T15:10:18;11.30;42.90
24164;DHT22;12319;49.204;8.116;2023-04-03T15:12:44;11.30;42.10
24164;DHT22;12319;49.204;8.116;2023-04-03T15:15:11;11.20;42.80
24164;DHT22;12319;49.204;8.116;2023-04-03T15:17:37;11.10;42.60
24164;DHT22;12319;49.204;8.116;2023-04-03T15:20:13;10.90;42.40
24164;DHT22;12319;49.204;8.116;2023-04-03T15:22:39;10.80;42.60
24164;DHT22;12319;49.204;8.116;2023-04-03T15:25:06;10.70;43.20
24164;DHT22;12319;49.204;8.116;2023-04-03T15:27:31;10.70;42.90
24164;DHT22;12319;49.204;8.116;2023-04-03T15:29:57;10.70;42.40
24164;DHT22;12319;49.204;8.116;2023-04-03T15:32:23;10.80;43.00
24164;DHT22;12319;49.204;8.116;2023-04-03T15:34:49;10.70;43.20
24164;DHT22;12319;49.204;8.116;2023-04-03T15:37:14;10.80;43.20
24164;DHT22;12319;49.204;8.116;2023-04-03T15:39:40;10.70;43.10
24164;DHT22;12319;49.204;8.116;2023-04-03T15:42:05;10.70;43.70
24164;DHT22;12319;49.204;8.116;2023-04-03T15:44:33;10.70;43.10
24164;DHT22;12319;49.204;8.116;2023-04-03T15:46:59;10.60;43.40
24164;DHT22;12319;49.204;8.116;2023-04-03T15:49:25;10.40;43.10
24164;DHT22;12319;49.204;8.116;2023-04-03T15:51:51;10.30;43.50
24164;DHT22;12319;49.204;8.116;2023-04-03T15:54:17;10.10;44.00
24164;DHT22;12319;49.204;8.116;2023-04-03T15:56:43;10.10;44.30
24164;DHT22;12319;49.204;8.116;2023-04-03T15:59:08;9.90;44.50
24164;DHT22;12319;49.204;8.116;2023-04-03T16:01:34;9.90;44.40
24164;DHT22;12319;49.204;8.116;2023-04-03T16:04:01;9.80;43.50
24164;DHT22;12319;49.204;8.116;2023-04-03T16:06:27;9.80;43.40
24164;DHT22;12319;49.204;8.116;2023-04-03T16:08:55;9.70;43.50
24164;DHT22;12319;49.204;8.116;2023-04-03T16:11:24;9.80;43.80
24164;DHT22;12319;49.204;8.116;2023-04-03T16:13:50;9.90;43.60
24164;DHT22;12319;49.204;8.116;2023-04-03T16:16:16;9.90;44.10
24164;DHT22;12319;49.204;8.116;2023-04-03T16:18:41;9.90;43.60
24164;DHT22;12319;49.204;8.116;2023-04-03T16:21:08;10.80;43.80
24164;DHT22;12319;49.204;8.116;2023-04-03T16:23:34;10.00;43.00
24164;DHT22;12319;49.204;8.116;2023-04-03T16:26:00;10.00;43.40
24164;DHT22;12319;49.204;8.116;2023-04-03T16:28:25;10.00;43.10
24164;DHT22;12319;49.204;8.116;2023-04-03T16:30:51;10.00;43.40
24164;DHT22;12319;49.204;8.116;2023-04-03T16:33:17;10.10;43.50
24164;DHT22;12319;49.204;8.116;2023-04-03T16:35:43;10.10;43.30
24164;DHT22;12319;49.204;8.116;2023-04-03T16:38:09;10.10;42.90
24164;DHT22;12319;49.204;8.116;2023-04-03T16:40:35;10.00;42.60
24164;DHT22;12319;49.204;8.116;2023-04-03T16:43:02;9.90;43.50
24164;DHT22;12319;49.204;8.116;2023-04-03T16:45:27;9.90;44.10
24164;DHT22;12319;49.204;8.116;2023-04-03T16:47:53;9.90;44.30
24164;DHT22;12319;49.204;8.116;2023-04-03T16:50:19;9.80;43.40
24164;DHT22;12319;49.204;8.116;2023-04-03T16:52:47;9.80;43.40
24164;DHT22;12319;49.204;8.116;2023-04-03T16:55:13;9.80;43.40
24164;DHT22;12319;49.204;8.116;2023-04-03T16:57:38;9.70;43.50
24164;DHT22;12319;49.204;8.116;2023-04-03T17:00:05;9.60;43.90
24164;DHT22;12319;49.204;8.116;2023-04-03T17:02:31;9.60;43.80
24164;DHT22;12319;49.204;8.116;2023-04-03T17:04:56;9.60;43.70
24164;DHT22;12319;49.204;8.116;2023-04-03T17:07:23;9.50;44.00
24164;DHT22;12319;49.204;8.116;2023-04-03T17:09:50;9.50;44.30
24164;DHT22;12319;49.204;8.116;2023-04-03T17:12:16;9.50;44.90
24164;DHT22;12319;49.204;8.116;2023-04-03T17:14:42;9.40;44.70
24164;DHT22;12319;49.204;8.116;2023-04-03T17:17:08;9.30;44.60
24164;DHT22;12319;49.204;8.116;2023-04-03T17:19:35;9.30;45.00
24164;DHT22;12319;49.204;8.116;2023-04-03T17:22:01;9.20;45.20
24164;DHT22;12319;49.204;8.116;2023-04-03T17:24:27;9.20;45.30